Time;durP1;ratioP1;P1;durP2;ratioP2;P2;SDS_P1;SDS_P2;PMS_P1;PMS_P2;Temp;Humidity;BMP_temperature;BMP_pressure;BME280_temperature;BME280_humidity;BME280_pressure;Samples;Min_cycle;Max_cycle;Signal;HPM_P1;HPM_P2
2023/06/27 00:00:13;;;;;;;2.73;1.40;;;25.50;76.90;;;;;;5037272;28;20454;-82
2023/06/27 00:02:40;;;;;;;1.90;1.27;;;25.50;77.30;;;;;;5039593;28;20457;-82
2023/06/27 00:05:08;;;;;;;2.00;1.00;;;25.50;77.00;;;;;;5043838;28;20458;-83
2023/06/27 00:07:35;;;;;;;2.43;1.67;;;25.50;76.90;;;;;;5041601;28;20478;-82
2023/06/27 00:10:05;;;;;;;1.70;1.40;;;25.50;77.00;;;;;;5039429;28;20459;-82
2023/06/27 00:12:31;;;;;;;2.13;1.20;;;25.50;77.10;;;;;;5040542;28;20467;-81
2023/06/27 00:14:58;;;;;;;1.77;1.20;;;25.50;77.10;;;;;;5039265;28;20466;-81
2023/06/27 00:17:25;;;;;;;2.27;1.43;;;25.50;77.10;;;;;;5044326;28;20442;-81
2023/06/27 00:19:58;;;;;;;8.30;1.43;;;25.50;77.10;;;;;;5043304;28;20869;-81
2023/06/27 00:22:26;;;;;;;1.63;1.20;;;25.50;77.10;;;;;;5041783;28;20454;-81
2023/06/27 00:24:53;;;;;;;1.97;1.40;;;25.50;77.20;;;;;;5042321;28;20461;-82
2023/06/27 00:27:22;;;;;;;3.40;1.73;;;25.50;77.30;;;;;;5041687;28;20474;-82
2023/06/27 00:29:49;;;;;;;2.07;1.40;;;25.50;77.30;;;;;;5041350;28;20470;-81
2023/06/27 00:32:15;;;;;;;2.53;1.83;;;25.50;77.30;;;;;;5037057;28;20909;-81
2023/06/27 00:34:42;;;;;;;1.93;1.30;;;25.50;77.40;;;;;;5024735;28;20458;-81
2023/06/27 00:37:09;;;;;;;1.57;1.40;;;25.50;77.40;;;;;;5028127;28;20451;-81
2023/06/27 00:39:36;;;;;;;1.43;1.30;;;25.50;77.50;;;;;;5024522;28;20465;-82
2023/06/27 00:42:03;;;;;;;5.03;1.53;;;25.50;77.50;;;;;;5026548;28;20463;-81
2023/06/27 00:44:31;;;;;;;1.40;1.20;;;25.50;77.50;;;;;;5028988;28;20469;-81
2023/06/27 00:46:58;;;;;;;1.90;1.50;;;25.50;77.50;;;;;;5027469;28;20486;-81
2023/06/27 00:49:26;;;;;;;2.10;1.40;;;25.50;77.60;;;;;;5025918;28;20465;-81
2023/06/27 00:51:55;;;;;;;1.97;1.57;;;25.50;77.70;;;;;;5026806;28;20461;-81
2023/06/27 00:54:23;;;;;;;4.07;1.23;;;25.50;77.60;;;;;;5028734;28;20455;-81
2023/06/27 00:56:53;;;;;;;1.90;1.40;;;25.50;77.70;;;;;;5027705;28;20478;-80
2023/06/27 00:59:20;;;;;;;1.87;1.60;;;25.50;77.80;;;;;;5027632;28;20588;-82
2023/06/27 01:01:49;;;;;;;2.63;1.60;;;25.50;77.80;;;;;;5026747;28;21519;-82
2023/06/27 01:04:16;;;;;;;3.63;1.27;;;25.50;77.90;;;;;;5026843;28;20474;-83
2023/06/27 01:06:52;;;;;;;2.30;1.23;;;25.50;77.90;;;;;;5026104;28;20470;-82
2023/06/27 01:09:25;;;;;;;1.80;1.47;;;25.50;78.00;;;;;;5028546;28;20466;-81
2023/06/27 01:11:58;;;;;;;1.70;1.23;;;25.50;77.90;;;;;;5027483;28;20469;-83
2023/06/27 01:14:27;;;;;;;2.90;2.07;;;25.50;78.00;;;;;;5031216;28;20466;-83
2023/06/27 01:16:57;;;;;;;1.90;1.53;;;25.50;78.00;;;;;;5031345;28;20960;-82
2023/06/27 01:19:26;;;;;;;2.30;1.53;;;25.50;78.00;;;;;;5040899;28;20459;-81
2023/06/27 01:22:00;;;;;;;4.13;1.90;;;25.50;78.10;;;;;;5039902;28;20515;-81
2023/06/27 01:24:31;;;;;;;1.60;1.30;;;25.50;78.20;;;;;;5042313;28;20463;-81
2023/06/27 01:26:58;;;;;;;2.37;1.97;;;25.40;78.10;;;;;;5041781;28;20469;-82
2023/06/27 01:29:26;;;;;;;1.30;1.20;;;25.40;78.10;;;;;;5039167;28;20516;-82
2023/06/27 01:31:57;;;;;;;1.83;1.67;;;25.40;78.10;;;;;;5043338;28;20449;-82
2023/06/27 01:34:30;;;;;;;2.00;1.50;;;25.40;78.10;;;;;;5041151;28;20465;-83
2023/06/27 01:37:03;;;;;;;2.43;1.20;;;25.40;78.20;;;;;;5043797;28;21303;-82
2023/06/27 01:39:36;;;;;;;1.63;1.53;;;25.40;78.20;;;;;;5040289;28;20837;-82
2023/06/27 01:42:13;;;;;;;1.73;1.23;;;25.40;78.30;;;;;;5040276;28;20814;-81
2023/06/27 01:44:42;;;;;;;4.97;1.83;;;25.40;78.30;;;;;;5040304;28;21484;-82
2023/06/27 01:47:10;;;;;;;2.40;1.73;;;25.40;78.40;;;;;;5047328;28;20484;-81
2023/06/27 01:49:37;;;;;;;1.60;1.43;;;25.40;78.40;;;;;;5043621;28;20465;-81
2023/06/27 01:52:05;;;;;;;1.70;1.23;;;25.40;78.40;;;;;;5045250;28;20438;-81
2023/06/27 01:54:33;;;;;;;1.83;1.10;;;25.40;78.40;;;;;;5045359;28;20461;-81
2023/06/27 01:57:00;;;;;;;2.33;2.13;;;25.40;78.50;;;;;;5041999;28;20470;-81
2023/06/27 01:59:26;;;;;;;1.30;1.10;;;25.40;78.50;;;;;;5044728;28;20465;-83
2023/06/27 02:01:53;;;;;;;1.60;1.30;;;25.40;78.60;;;;;;5043625;28;20457;-82
2023/06/27 02:04:20;;;;;;;1.40;1.20;;;25.40;78.60;;;;;;5043338;28;20453;-81
2023/06/27 02:06:47;;;;;;;1.70;1.33;;;25.40;78.60;;;;;;5039015;28;20464;-82
2023/06/27 02:09:14;;;;;;;2.47;1.50;;;25.40;78.70;;;;;;5042254;28;20458;-82
2023/06/27 02:11:42;;;;;;;1.63;1.47;;;25.40;78.70;;;;;;5038984;28;20782;-82
2023/06/27 02:14:09;;;;;;;1.50;1.27;;;25.40;78.70;;;;;;5044050;28;20800;-82
2023/06/27 02:16:36;;;;;;;1.20;1.07;;;25.40;78.70;;;;;;5041688;28;21023;-81
2023/06/27 02:19:02;;;;;;;2.93;1.63;;;25.40;78.70;;;;;;5046718;28;21287;-82
2023/06/27 02:21:29;;;;;;;1.17;1.00;;;25.40;78.70;;;;;;5046793;28;20458;-82
2023/06/27 02:23:56;;;;;;;1.90;1.27;;;25.40;78.80;;;;;;5047081;28;20462;-81
2023/06/27 02:26:22;;;;;;;1.50;1.10;;;25.40;78.80;;;;;;5040229;28;20466;-81
2023/06/27 02:28:51;;;;;;;1.97;1.77;;;25.40;78.90;;;;;;5043054;28;20486;-80
2023/06/27 02:31:19;;;;;;;2.70;1.40;;;25.40;78.90;;;;;;5042241;28;20607;-81
2023/06/27 02:33:46;;;;;;;2.23;1.67;;;25.40;78.90;;;;;;5040990;28;20474;-82
2023/06/27 02:36:13;;;;;;;1.93;1.27;;;25.30;78.80;;;;;;5037972;28;20838;-81
2023/06/27 02:38:40;;;;;;;1.50;1.13;;;25.40;78.90;;;;;;5041307;28;20626;-81
2023/06/27 02:41:06;;;;;;;1.80;1.20;;;25.40;79.00;;;;;;5036284;28;20463;-82
2023/06/27 02:43:34;;;;;;;1.40;1.30;;;25.40;79.00;;;;;;5038974;28;20486;-82
2023/06/27 02:46:02;;;;;;;1.70;1.30;;;25.30;78.90;;;;;;5026087;28;21068;-82
2023/06/27 02:48:29;;;;;;;3.10;1.80;;;25.30;78.90;;;;;;5029772;28;20486;-83
2023/06/27 02:50:56;;;;;;;2.03;1.50;;;25.30;79.00;;;;;;5034211;28;20451;-83
2023/06/27 02:53:23;;;;;;;2.17;1.20;;;25.30;79.00;;;;;;5031514;28;20463;-83
2023/06/27 02:55:50;;;;;;;1.40;1.23;;;25.30;79.00;;;;;;5034667;28;20459;-81
2023/06/27 02:58:17;;;;;;;1.67;1.53;;;25.40;79.10;;;;;;5036478;28;20749;-81
2023/06/27 03:00:44;;;;;;;1.30;1.17;;;25.30;79.00;;;;;;5036897;28;20462;-81
2023/06/27 03:03:12;;;;;;;2.00;1.33;;;25.30;79.10;;;;;;5036275;28;21158;-81
2023/06/27 03:05:39;;;;;;;2.17;1.40;;;25.30;79.10;;;;;;5032653;28;20826;-82
2023/06/27 03:08:06;;;;;;;1.37;1.20;;;25.30;79.20;;;;;;5032713;28;20483;-81
2023/06/27 03:10:35;;;;;;;1.53;1.10;;;25.30;79.20;;;;;;5037474;28;20457;-80
2023/06/27 03:13:02;;;;;;;1.93;1.27;;;25.30;79.20;;;;;;5031650;28;20462;-81
2023/06/27 03:15:29;;;;;;;2.03;1.30;;;25.30;79.20;;;;;;5024478;28;20466;-80
2023/06/27 03:17:56;;;;;;;2.70;1.73;;;25.30;79.30;;;;;;5026751;28;20459;-79
2023/06/27 03:20:24;;;;;;;2.17;1.30;;;25.30;79.30;;;;;;5024851;28;20470;-80
2023/06/27 03:22:51;;;;;;;1.63;1.53;;;25.30;80.10;;;;;;5031510;28;20930;-80
2023/06/27 03:25:17;;;;;;;1.50;1.40;;;25.30;79.30;;;;;;5033340;28;20462;-80
2023/06/27 03:27:44;;;;;;;1.70;1.60;;;25.30;79.40;;;;;;5037722;28;20485;-81
2023/06/27 03:30:13;;;;;;;1.53;1.23;;;25.30;79.40;;;;;;5037789;28;20461;-81
2023/06/27 03:32:39;;;;;;;1.60;1.20;;;25.30;79.40;;;;;;5036912;28;20461;-81
2023/06/27 03:35:07;;;;;;;1.73;1.20;;;25.30;79.40;;;;;;5034524;28;20473;-82
2023/06/27 03:37:35;;;;;;;1.37;1.10;;;25.30;79.40;;;;;;5033804;28;20474;-81
2023/06/27 03:40:02;;;;;;;1.90;1.50;;;25.30;79.50;;;;;;5035129;28;21084;-81
2023/06/27 03:42:29;;;;;;;1.63;1.30;;;25.30;79.50;;;;;;5035714;28;20538;-81
2023/06/27 03:44:56;;;;;;;1.60;1.30;;;25.30;79.50;;;;;;5036380;28;20461;-81
2023/06/27 03:47:24;;;;;;;2.07;1.47;;;25.30;79.50;;;;;;5035640;28;20565;-81
2023/06/27 03:49:51;;;;;;;1.83;1.50;;;25.30;79.50;;;;;;5037144;28;20980;-81
2023/06/27 03:52:18;;;;;;;1.13;1.03;;;25.30;79.50;;;;;;5037110;28;20463;-80
2023/06/27 03:54:46;;;;;;;2.03;1.60;;;25.30;79.60;;;;;;5034505;28;20450;-81
2023/06/27 03:57:13;;;;;;;1.77;1.00;;;25.30;79.60;;;;;;5032275;28;20493;-81
2023/06/27 03:59:40;;;;;;;2.27;1.50;;;25.30;79.60;;;;;;5030298;28;20817;-81
2023/06/27 04:02:07;;;;;;;1.80;1.37;;;25.30;79.60;;;;;;5034289;28;20466;-80
2023/06/27 04:04:34;;;;;;;1.67;1.57;;;25.30;80.50;;;;;;5037218;28;20934;-80
2023/06/27 04:07:00;;;;;;;2.50;1.50;;;25.30;79.70;;;;;;5033405;28;20947;-81
2023/06/27 04:09:27;;;;;;;1.67;1.10;;;25.30;79.80;;;;;;5034734;28;20502;-81
2023/06/27 04:11:58;;;;;;;1.60;1.50;;;25.20;79.60;;;;;;5040550;28;21037;-81
2023/06/27 04:14:25;;;;;;;1.10;1.00;;;25.30;79.80;;;;;;5017238;28;20489;-82
2023/06/27 04:16:52;;;;;;;5.00;1.63;;;25.30;79.80;;;;;;5037198;28;21339;-80
2023/06/27 04:19:19;;;;;;;1.87;1.40;;;25.30;79.80;;;;;;5038835;28;20462;-80
2023/06/27 04:21:46;;;;;;;1.73;1.10;;;25.30;79.90;;;;;;5031204;28;20447;-80
2023/06/27 04:24:13;;;;;;;1.30;1.10;;;25.20;79.80;;;;;;5028574;28;20950;-80
2023/06/27 04:26:42;;;;;;;1.47;1.17;;;25.30;79.90;;;;;;5011549;28;20461;-80
2023/06/27 04:29:11;;;;;;;1.33;1.23;;;25.30;80.70;;;;;;5029908;28;20477;-79
2023/06/27 04:31:37;;;;;;;2.00;1.80;;;25.30;79.90;;;;;;5033564;28;20579;-79
2023/06/27 04:34:05;;;;;;;2.23;1.57;;;25.30;80.00;;;;;;5034353;28;21346;-80
2023/06/27 04:36:34;;;;;;;1.67;1.43;;;25.30;80.00;;;;;;5033793;28;21626;-79
2023/06/27 04:39:05;;;;;;;1.63;1.53;;;25.20;80.00;;;;;;5035032;28;20539;-80
2023/06/27 04:41:32;;;;;;;1.57;1.40;;;25.30;80.10;;;;;;5027418;28;20459;-79
2023/06/27 04:43:59;;;;;;;2.73;1.20;;;25.30;80.30;;;;;;5027488;28;20577;-79
2023/06/27 04:46:28;;;;;;;2.40;1.30;;;25.20;80.30;;;;;;5030818;28;20554;-79
2023/06/27 04:48:56;;;;;;;2.27;1.90;;;25.20;80.20;;;;;;5009784;28;20475;-79
2023/06/27 04:51:24;;;;;;;2.00;1.80;;;25.20;80.30;;;;;;5029953;28;20514;-79
2023/06/27 04:53:50;;;;;;;1.70;1.60;;;25.20;80.30;;;;;;5028574;28;20970;-80
2023/06/27 04:56:17;;;;;;;1.67;1.37;;;25.20;80.40;;;;;;5023965;28;20474;-79
2023/06/27 04:58:44;;;;;;;1.80;1.37;;;25.20;80.30;;;;;;5024438;28;20980;-80
2023/06/27 05:01:11;;;;;;;2.13;1.40;;;25.20;80.40;;;;;;5025073;28;20498;-79
2023/06/27 05:03:41;;;;;;;2.13;1.90;;;25.20;80.40;;;;;;5026318;28;20463;-79
2023/06/27 05:06:08;;;;;;;1.67;1.50;;;25.20;81.30;;;;;;5024930;28;21039;-79
2023/06/27 05:08:36;;;;;;;2.10;1.83;;;25.20;80.40;;;;;;5026615;28;20485;-79
2023/06/27 05:11:04;;;;;;;1.93;1.40;;;25.20;80.50;;;;;;5023839;28;20466;-79
2023/06/27 05:13:31;;;;;;;1.70;1.10;;;25.20;80.50;;;;;;5029574;28;20528;-78
2023/06/27 05:15:58;;;;;;;1.80;1.30;;;25.20;80.60;;;;;;5028574;28;20458;-81
2023/06/27 05:18:27;;;;;;;1.67;1.50;;;25.20;80.60;;;;;;5030815;28;20463;-82
2023/06/27 05:20:55;;;;;;;1.73;1.40;;;25.20;80.60;;;;;;5033120;28;20453;-81
2023/06/27 05:23:22;;;;;;;1.97;1.50;;;25.20;80.60;;;;;;5028631;28;20824;-81
2023/06/27 05:25:50;;;;;;;1.93;1.40;;;25.20;80.70;;;;;;5011645;28;20546;-81
2023/06/27 05:28:17;;;;;;;2.03;1.40;;;25.20;80.60;;;;;;5031822;28;20478;-82
2023/06/27 05:30:44;;;;;;;1.47;1.30;;;25.20;80.70;;;;;;5033403;28;20462;-81
2023/06/27 05:33:11;;;;;;;1.50;1.20;;;25.20;80.70;;;;;;5033450;28;20464;-82
2023/06/27 05:35:38;;;;;;;1.97;1.50;;;25.20;80.70;;;;;;5034574;28;20465;-82
2023/06/27 05:38:07;;;;;;;1.40;1.10;;;25.20;80.70;;;;;;5035504;28;20461;-81
2023/06/27 05:40:34;;;;;;;1.47;1.37;;;25.20;80.70;;;;;;5033044;28;20502;-81
2023/06/27 05:43:00;;;;;;;1.77;1.43;;;25.20;80.70;;;;;;5030361;28;20461;-81
2023/06/27 05:45:27;;;;;;;1.43;1.33;;;25.20;80.80;;;;;;5028471;28;20462;-81
2023/06/27 05:47:54;;;;;;;1.63;1.20;;;25.20;80.80;;;;;;5032172;28;20457;-81
2023/06/27 05:50:21;;;;;;;1.97;1.53;;;25.20;80.80;;;;;;5030516;28;20462;-82
2023/06/27 05:52:48;;;;;;;1.83;1.50;;;25.20;81.60;;;;;;5030859;28;20467;-82
2023/06/27 05:55:17;;;;;;;1.80;1.60;;;25.20;80.80;;;;;;5025776;28;20461;-80
2023/06/27 05:57:44;;;;;;;2.13;1.40;;;25.20;80.80;;;;;;5028962;28;20478;-80
2023/06/27 06:00:14;;;;;;;1.73;1.30;;;25.20;80.90;;;;;;5028434;28;20822;-81
2023/06/27 06:02:43;;;;;;;1.80;1.70;;;25.20;80.90;;;;;;5039033;28;20450;-80
2023/06/27 06:05:11;;;;;;;1.63;1.37;;;25.20;81.00;;;;;;5038565;28;20462;-80
2023/06/27 06:07:42;;;;;;;2.00;1.33;;;25.20;81.00;;;;;;5034408;28;20466;-81
2023/06/27 06:10:09;;;;;;;2.10;1.90;;;25.20;81.00;;;;;;5035413;28;20577;-81
2023/06/27 06:12:38;;;;;;;1.83;1.30;;;25.20;81.00;;;;;;5031315;28;21063;-80
2023/06/27 06:15:06;;;;;;;2.47;1.73;;;25.20;81.00;;;;;;5031318;28;20473;-80
2023/06/27 06:17:33;;;;;;;1.90;1.60;;;25.20;81.00;;;;;;5035107;28;20775;-81
2023/06/27 06:20:00;;;;;;;2.20;1.33;;;25.20;81.10;;;;;;5033849;28;20445;-81
2023/06/27 06:22:27;;;;;;;1.83;1.23;;;25.20;81.10;;;;;;5031889;28;20583;-81
2023/06/27 06:24:53;;;;;;;1.63;1.47;;;25.20;81.20;;;;;;5033789;28;20462;-81
2023/06/27 06:27:20;;;;;;;1.80;1.40;;;25.20;81.20;;;;;;5042059;28;20449;-80
2023/06/27 06:29:48;;;;;;;3.70;1.30;;;25.30;81.40;;;;;;5038307;28;20605;-80
2023/06/27 06:32:15;;;;;;;1.80;1.50;;;25.30;81.40;;;;;;5028347;28;20466;-81
2023/06/27 06:34:42;;;;;;;1.97;1.77;;;25.30;81.50;;;;;;5030862;28;20462;-81
2023/06/27 06:37:09;;;;;;;5.73;2.90;;;25.30;81.50;;;;;;5027073;28;21519;-81
2023/06/27 06:39:36;;;;;;;4.67;3.03;;;25.20;80.10;;;;;;5021193;28;20471;-81
2023/06/27 06:42:03;;;;;;;7.73;3.63;;;25.20;79.70;;;;;;5021383;28;20462;-80
2023/06/27 06:44:30;;;;;;;4.40;2.50;;;25.10;78.40;;;;;;5021378;28;20524;-80
2023/06/27 06:46:58;;;;;;;5.50;2.83;;;25.10;78.10;;;;;;5026672;28;20450;-76
2023/06/27 06:49:25;;;;;;;4.40;3.07;;;25.10;77.70;;;;;;5021171;28;20478;-76
2023/06/27 06:51:51;;;;;;;9.87;2.90;;;25.10;77.40;;;;;;5025027;28;20460;-75
2023/06/27 06:54:19;;;;;;;7.63;3.53;;;25.00;77.00;;;;;;5021802;28;20896;-75
2023/06/27 06:56:45;;;;;;;9.10;2.97;;;25.00;76.70;;;;;;5019358;28;21019;-77
2023/06/27 06:59:12;;;;;;;10.10;2.90;;;25.00;76.90;;;;;;5023023;28;22510;-77
2023/06/27 07:01:39;;;;;;;4.23;2.23;;;25.00;76.60;;;;;;5024902;28;20520;-77
2023/06/27 07:04:07;;;;;;;8.20;3.07;;;25.00;76.70;;;;;;5024327;28;22115;-78
2023/06/27 07:06:35;;;;;;;6.23;2.60;;;25.00;77.10;;;;;;5025196;28;20454;-78
2023/06/27 07:09:02;;;;;;;9.27;2.90;;;24.90;76.60;;;;;;5020065;28;20497;-77
2023/06/27 07:11:29;;;;;;;9.60;3.20;;;24.90;76.60;;;;;;5020632;28;20470;-77
2023/06/27 07:13:55;;;;;;;8.53;3.90;;;24.90;76.40;;;;;;5021445;28;20458;-77
2023/06/27 07:16:22;;;;;;;6.90;3.73;;;24.90;76.40;;;;;;5024633;28;20457;-76
2023/06/27 07:18:49;;;;;;;15.93;3.57;;;24.80;75.90;;;;;;5027472;28;20458;-78
2023/06/27 07:21:17;;;;;;;11.50;3.80;;;24.80;76.00;;;;;;5029494;28;20811;-78
2023/06/27 07:23:44;;;;;;;11.23;4.63;;;24.80;76.40;;;;;;5026380;28;20466;-78
2023/06/27 07:26:11;;;;;;;9.60;3.50;;;24.80;76.30;;;;;;5023926;28;20467;-79
2023/06/27 07:28:38;;;;;;;8.17;3.23;;;24.80;76.40;;;;;;5025757;28;20697;-79
2023/06/27 07:31:04;;;;;;;10.80;2.90;;;24.80;76.20;;;;;;5026285;28;20470;-77
2023/06/27 07:33:31;;;;;;;8.13;2.90;;;24.80;76.50;;;;;;5029885;28;20846;-78
2023/06/27 07:35:58;;;;;;;6.27;3.10;;;24.80;76.70;;;;;;5029602;28;21040;-77
2023/06/27 07:38:26;;;;;;;8.37;2.90;;;24.80;77.50;;;;;;5029546;28;20469;-77
2023/06/27 07:40:53;;;;;;;8.30;2.83;;;24.80;76.80;;;;;;5027524;28;20464;-77
2023/06/27 07:43:19;;;;;;;5.70;3.33;;;24.80;77.10;;;;;;5028423;28;20984;-77
2023/06/27 07:45:46;;;;;;;5.40;3.03;;;24.80;77.60;;;;;;5029356;28;20467;-78
2023/06/27 07:48:13;;;;;;;10.23;3.90;;;24.80;77.80;;;;;;5028256;28;20469;-77
2023/06/27 07:50:40;;;;;;;6.97;2.80;;;24.80;78.40;;;;;;5027413;28;20481;-77
2023/06/27 07:53:06;;;;;;;5.63;3.00;;;24.80;78.20;;;;;;5029395;28;20729;-78
2023/06/27 07:55:35;;;;;;;8.50;3.10;;;24.80;78.40;;;;;;5034725;28;20469;-74
2023/06/27 07:58:02;;;;;;;6.60;3.20;;;24.80;78.50;;;;;;5039426;28;20478;-77
2023/06/27 08:00:29;;;;;;;17.23;4.80;;;24.80;78.50;;;;;;5032768;28;20458;-77
2023/06/27 08:02:56;;;;;;;5.03;2.87;;;24.80;78.60;;;;;;5034305;28;20459;-77
2023/06/27 08:05:23;;;;;;;5.47;3.10;;;24.90;79.00;;;;;;5035452;28;20457;-77
2023/06/27 08:07:50;;;;;;;8.00;3.30;;;24.80;79.00;;;;;;5037815;28;20545;-77
2023/06/27 08:10:16;;;;;;;7.27;2.87;;;24.80;78.90;;;;;;5033707;28;20981;-76
2023/06/27 08:12:45;;;;;;;11.43;3.63;;;24.80;78.90;;;;;;5035265;28;20977;-77
2023/06/27 08:15:12;;;;;;;8.77;3.57;;;24.80;78.90;;;;;;5035118;28;20450;-76
2023/06/27 08:17:39;;;;;;;8.40;3.00;;;24.80;78.90;;;;;;5035783;28;20540;-77
2023/06/27 08:20:07;;;;;;;6.77;2.80;;;24.90;79.00;;;;;;5033375;28;20450;-75
2023/06/27 08:22:34;;;;;;;8.77;3.07;;;24.80;79.10;;;;;;5033693;28;20616;-76
2023/06/27 08:25:01;;;;;;;12.97;3.07;;;24.80;78.80;;;;;;5032948;28;20882;-77
2023/06/27 08:27:28;;;;;;;15.60;4.67;;;24.80;79.00;;;;;;5037852;28;20458;-77
2023/06/27 08:29:56;;;;;;;9.87;3.60;;;24.80;78.90;;;;;;5033688;28;20540;-79
2023/06/27 08:32:23;;;;;;;7.63;2.83;;;24.80;78.90;;;;;;5030638;28;20478;-77
2023/06/27 08:34:51;;;;;;;6.23;3.27;;;24.80;78.70;;;;;;5034585;28;20461;-77
2023/06/27 08:37:17;;;;;;;7.83;3.10;;;24.80;78.80;;;;;;5036926;28;21078;-77
2023/06/27 08:39:51;;;;;;;7.83;2.87;;;24.80;78.70;;;;;;5032497;28;20462;-76
2023/06/27 08:42:18;;;;;;;8.50;3.13;;;24.80;78.90;;;;;;5030351;28;21126;-77
2023/06/27 08:44:45;;;;;;;10.00;3.70;;;24.80;78.80;;;;;;5034314;28;20458;-78
2023/06/27 08:47:16;;;;;;;9.30;3.20;;;24.80;78.80;;;;;;5038251;28;20525;-77
2023/06/27 08:49:49;;;;;;;7.50;2.90;;;24.80;78.60;;;;;;5034733;28;20481;-76
2023/06/27 08:52:20;;;;;;;12.60;2.97;;;24.80;78.60;;;;;;5040854;28;20458;-77
2023/06/27 08:54:54;;;;;;;14.73;3.63;;;24.80;78.50;;;;;;5042785;28;20538;-77
2023/06/27 08:57:26;;;;;;;11.17;3.20;;;24.80;78.30;;;;;;5034756;28;20474;-78
2023/06/27 08:59:56;;;;;;;6.93;2.80;;;24.80;78.10;;;;;;5034389;28;20466;-77
2023/06/27 09:02:26;;;;;;;8.30;3.70;;;24.80;77.80;;;;;;5036863;28;20469;-77
2023/06/27 09:04:54;;;;;;;4.70;2.53;;;24.80;77.50;;;;;;5035802;28;20450;-79
2023/06/27 09:07:21;;;;;;;6.70;3.53;;;24.80;77.60;;;;;;5036652;28;20459;-79
2023/06/27 09:09:50;;;;;;;8.90;2.60;;;24.80;77.60;;;;;;5034035;28;20504;-79
2023/06/27 09:12:17;;;;;;;11.87;2.80;;;24.70;77.50;;;;;;5034464;28;20446;-79
2023/06/27 09:14:44;;;;;;;6.87;2.53;;;24.80;78.20;;;;;;5028956;28;20470;-79
2023/06/27 09:17:11;;;;;;;11.63;2.57;;;24.80;78.20;;;;;;5025399;28;20937;-80
2023/06/27 09:19:39;;;;;;;5.87;2.57;;;24.80;78.10;;;;;;5020493;28;20459;-78
2023/06/27 09:22:06;;;;;;;6.70;2.37;;;24.80;77.60;;;;;;5033664;28;20458;-78
2023/06/27 09:24:40;;;;;;;5.70;2.30;;;24.70;77.30;;;;;;5034138;28;20849;-79
2023/06/27 09:27:07;;;;;;;7.87;2.73;;;24.70;77.10;;;;;;5034315;28;20491;-79
2023/06/27 09:29:36;;;;;;;3.27;2.00;;;24.70;77.10;;;;;;5034136;28;20493;-80
2023/06/27 09:32:08;;;;;;;4.63;2.20;;;24.70;78.60;;;;;;5035719;28;20461;-79
2023/06/27 09:34:36;;;;;;;5.93;2.90;;;24.70;79.80;;;;;;5035060;28;20463;-79
2023/06/27 09:37:05;;;;;;;4.33;2.13;;;24.80;80.20;;;;;;5034257;28;20822;-79
2023/06/27 09:39:32;;;;;;;6.87;2.57;;;24.80;79.70;;;;;;5034191;28;20470;-79
2023/06/27 09:41:59;;;;;;;9.00;3.60;;;24.80;80.10;;;;;;5028406;28;20462;-78
2023/06/27 09:44:26;;;;;;;10.37;2.90;;;24.80;80.10;;;;;;5028865;28;20476;-79
2023/06/27 09:46:53;;;;;;;9.87;2.30;;;24.80;79.90;;;;;;5031616;28;20885;-84
2023/06/27 09:49:21;;;;;;;6.50;2.30;;;24.80;79.50;;;;;;5029664;28;20582;-80
2023/06/27 09:51:50;;;;;;;6.40;2.20;;;24.80;79.10;;;;;;5027339;28;21558;-78
2023/06/27 09:54:21;;;;;;;5.60;1.90;;;24.80;78.80;;;;;;5029505;28;21064;-79
2023/06/27 09:56:50;;;;;;;5.60;1.97;;;24.80;78.20;;;;;;5030502;28;20486;-79
2023/06/27 09:59:18;;;;;;;4.90;2.10;;;24.80;77.60;;;;;;5027510;28;20584;-80
2023/06/27 10:01:45;;;;;;;2.53;1.70;;;24.70;77.30;;;;;;5030138;28;20464;-79
2023/06/27 10:04:12;;;;;;;4.20;1.90;;;24.70;77.10;;;;;;5031615;28;20912;-79
2023/06/27 10:06:40;;;;;;;7.60;2.17;;;24.70;76.80;;;;;;5033147;28;20465;-79
2023/06/27 10:09:08;;;;;;;3.43;2.40;;;24.70;76.50;;;;;;5035642;28;21185;-79
2023/06/27 10:11:40;;;;;;;4.57;2.53;;;24.70;76.40;;;;;;5027888;28;20493;-79
2023/06/27 10:14:08;;;;;;;7.23;2.37;;;24.70;76.00;;;;;;5026668;28;20489;-79
2023/06/27 10:16:36;;;;;;;9.53;2.87;;;24.70;76.00;;;;;;5031525;28;21057;-79
2023/06/27 10:19:05;;;;;;;3.30;1.80;;;24.70;76.00;;;;;;5034820;28;20459;-79
2023/06/27 10:21:32;;;;;;;3.00;1.87;;;24.70;77.00;;;;;;5036026;28;20990;-80
2023/06/27 10:24:03;;;;;;;5.00;2.30;;;24.70;76.00;;;;;;5032429;28;20454;-79
2023/06/27 10:26:30;;;;;;;8.53;1.77;;;24.70;76.10;;;;;;5029131;28;20466;-79
2023/06/27 10:28:59;;;;;;;6.83;2.00;;;24.70;76.10;;;;;;5032983;28;20465;-78
2023/06/27 10:31:39;;;;;;;4.93;2.40;;;24.70;75.60;;;;;;5024843;28;20499;-79
2023/06/27 10:34:07;;;;;;;2.87;1.90;;;24.70;74.70;;;;;;5025884;28;20534;-80
2023/06/27 10:36:56;;;;;;;3.93;2.20;;;24.60;74.20;;;;;;5021766;28;20463;-79
2023/06/27 10:39:28;;;;;;;3.37;1.70;;;24.60;73.90;;;;;;5025223;28;20458;-78
2023/06/27 10:42:05;;;;;;;2.90;1.93;;;24.60;74.10;;;;;;5019905;28;20466;-79
2023/06/27 10:44:57;;;;;;;1.87;1.63;;;24.60;73.70;;;;;;5028304;28;20540;-79
2023/06/27 10:47:29;;;;;;;3.80;1.70;;;24.60;73.50;;;;;;5028063;28;20486;-80
2023/06/27 10:50:06;;;;;;;6.63;1.60;;;24.60;73.80;;;;;;5029200;28;20486;-83
2023/06/27 10:52:34;;;;;;;2.93;2.00;;;24.60;73.90;;;;;;5032878;28;20991;-81
2023/06/27 10:55:23;;;;;;;3.13;1.87;;;24.60;74.10;;;;;;5030958;28;20462;-79
2023/06/27 10:58:06;;;;;;;2.50;1.67;;;24.60;74.30;;;;;;5030417;28;20479;-79
2023/06/27 11:00:35;;;;;;;4.97;2.50;;;24.70;74.60;;;;;;5030149;28;20450;-79
2023/06/27 11:03:04;;;;;;;3.40;2.00;;;24.60;74.30;;;;;;5028219;28;20596;-78
2023/06/27 11:05:46;;;;;;;3.00;1.50;;;24.60;74.20;;;;;;5030433;28;20454;-79
2023/06/27 11:08:15;;;;;;;4.13;1.83;;;24.60;74.40;;;;;;5032939;28;20536;-79
2023/06/27 11:10:52;;;;;;;2.93;2.10;;;24.60;74.30;;;;;;5030001;28;20485;-79
2023/06/27 11:13:22;;;;;;;3.20;1.93;;;24.60;74.20;;;;;;5031921;28;21360;-79
2023/06/27 11:15:52;;;;;;;2.00;1.40;;;24.60;74.30;;;;;;5029432;28;20977;-79
2023/06/27 11:18:19;;;;;;;2.87;2.27;;;24.60;74.00;;;;;;5031791;28;20494;-79
2023/06/27 11:20:47;;;;;;;2.00;1.80;;;24.60;73.40;;;;;;5032625;28;20459;-79
2023/06/27 11:23:15;;;;;;;5.80;2.00;;;24.60;72.90;;;;;;5032119;28;20576;-79
2023/06/27 11:25:44;;;;;;;10.13;1.63;;;24.60;72.50;;;;;;5030415;28;20469;-79
2023/06/27 11:28:11;;;;;;;4.70;1.60;;;24.60;72.30;;;;;;5029274;28;20462;-79
2023/06/27 11:30:39;;;;;;;4.37;1.70;;;24.60;71.90;;;;;;5032973;28;20475;-79
2023/06/27 11:33:08;;;;;;;4.03;1.60;;;24.60;71.40;;;;;;5028483;28;20453;-79
2023/06/27 11:35:35;;;;;;;5.47;2.03;;;24.60;71.40;;;;;;5026947;28;20553;-79
2023/06/27 11:38:06;;;;;;;4.60;1.53;;;24.60;71.30;;;;;;5031333;28;20457;-79
2023/06/27 11:40:33;;;;;;;6.87;1.60;;;24.60;71.00;;;;;;5017047;28;20466;-80
2023/06/27 11:43:02;;;;;;;2.43;1.50;;;24.60;70.80;;;;;;5019676;28;20627;-79
2023/06/27 11:45:29;;;;;;;1.93;1.37;;;24.60;70.80;;;;;;5017497;28;20753;-79
2023/06/27 11:47:56;;;;;;;3.10;1.40;;;24.50;70.60;;;;;;5020863;28;20455;-80
2023/06/27 11:50:25;;;;;;;2.00;1.37;;;24.60;70.80;;;;;;5024436;28;20482;-80
2023/06/27 11:52:52;;;;;;;4.07;1.60;;;24.50;70.70;;;;;;5023003;28;21117;-79
2023/06/27 11:55:19;;;;;;;3.43;1.63;;;24.60;70.60;;;;;;5018003;28;20469;-79
2023/06/27 11:57:46;;;;;;;5.17;1.90;;;24.60;70.70;;;;;;5020951;28;20483;-79
2023/06/27 12:00:15;;;;;;;7.47;1.40;;;24.60;70.80;;;;;;5021767;28;20497;-79
2023/06/27 12:02:42;;;;;;;5.73;1.50;;;24.60;70.80;;;;;;5032379;28;20461;-79
2023/06/27 12:05:16;;;;;;;3.83;2.03;;;24.60;70.70;;;;;;5033454;28;20451;-79
2023/06/27 12:08:01;;;;;;;2.10;1.30;;;24.50;70.50;;;;;;5038688;28;20528;-79
2023/06/27 12:10:28;;;;;;;3.57;1.80;;;24.60;70.60;;;;;;5036453;28;20888;-79
2023/06/27 12:12:55;;;;;;;6.87;1.93;;;24.60;70.40;;;;;;5033773;28;20470;-79
2023/06/27 12:15:22;;;;;;;2.63;1.40;;;24.60;70.30;;;;;;5031394;28;20468;-79
2023/06/27 12:18:00;;;;;;;3.93;1.80;;;24.50;70.20;;;;;;5034418;28;21025;-79
2023/06/27 12:20:28;;;;;;;4.20;1.93;;;24.60;70.10;;;;;;5025780;28;20461;-79
2023/06/27 12:22:56;;;;;;;2.13;1.70;;;24.60;70.30;;;;;;5026125;28;20481;-79
2023/06/27 12:25:23;;;;;;;4.20;1.80;;;24.60;70.30;;;;;;5024249;28;20469;-79
2023/06/27 12:27:50;;;;;;;2.73;1.80;;;24.60;70.30;;;;;;5025591;28;20466;-79
2023/06/27 12:30:17;;;;;;;4.70;1.30;;;24.60;70.30;;;;;;5019724;28;20470;-80
2023/06/27 12:32:43;;;;;;;2.80;1.63;;;24.60;70.40;;;;;;5025845;28;20466;-79
2023/06/27 12:35:17;;;;;;;5.50;1.67;;;24.60;70.30;;;;;;5025443;28;20531;-79
2023/06/27 12:37:44;;;;;;;3.43;1.27;;;24.60;70.50;;;;;;5028933;28;20580;-79
2023/06/27 12:40:15;;;;;;;1.77;1.27;;;24.60;70.50;;;;;;5023601;28;20466;-79
2023/06/27 12:42:43;;;;;;;1.60;1.50;;;24.60;70.50;;;;;;5024514;28;20493;-78
2023/06/27 12:45:11;;;;;;;2.50;1.40;;;24.60;70.40;;;;;;5031147;28;20515;-79
2023/06/27 12:47:41;;;;;;;2.80;1.43;;;24.60;70.40;;;;;;5028575;28;20454;-79
2023/06/27 12:50:09;;;;;;;3.33;1.10;;;24.60;70.30;;;;;;5027172;28;20529;-79